Time;durP1;ratioP1;P1;durP2;ratioP2;P2;SDS_P1;SDS_P2;PMS_P1;PMS_P2;Temp;Humidity;BMP_temperature;BMP_pressure;BME280_temperature;BME280_humidity;BME280_pressure;Samples;Min_cycle;Max_cycle;Signal;HPM_P1;HPM_P2
2022/07/19 00:00:09;;;;;;;11.52;7.70;;;19.60;99.90;;;;;;4960966;28;20133;-58
2022/07/19 00:02:35;;;;;;;9.60;7.00;;;19.60;99.90;;;;;;4962154;28;20047;-59
2022/07/19 00:05:01;;;;;;;9.93;7.13;;;19.50;99.90;;;;;;4962356;28;20050;-58
2022/07/19 00:07:27;;;;;;;9.55;6.80;;;19.50;99.90;;;;;;4969891;28;20050;-58
2022/07/19 00:09:52;;;;;;;8.85;6.65;;;19.50;99.90;;;;;;4964570;28;20402;-58
2022/07/19 00:12:18;;;;;;;11.18;7.13;;;19.40;99.90;;;;;;4961927;28;20047;-58
2022/07/19 00:14:44;;;;;;;16.08;7.82;;;19.40;99.90;;;;;;4961850;28;20098;-58
2022/07/19 00:17:09;;;;;;;9.45;6.90;;;19.40;99.90;;;;;;4961943;28;20158;-57
2022/07/19 00:19:35;;;;;;;7.82;6.47;;;19.40;99.90;;;;;;4962107;28;21309;-59
2022/07/19 00:22:01;;;;;;;8.70;7.10;;;19.30;99.90;;;;;;4962558;28;20418;-58
2022/07/19 00:24:26;;;;;;;9.07;7.38;;;19.30;99.90;;;;;;4961750;28;20656;-58
2022/07/19 00:26:52;;;;;;;13.50;7.75;;;19.20;99.90;;;;;;4961831;28;20043;-59
2022/07/19 00:29:18;;;;;;;11.55;7.63;;;19.20;99.90;;;;;;4960687;28;21165;-58
2022/07/19 00:31:43;;;;;;;10.63;7.38;;;19.20;99.90;;;;;;4961610;28;20703;-58
2022/07/19 00:34:09;;;;;;;11.00;7.70;;;19.20;99.90;;;;;;4962480;28;20109;-59
2022/07/19 00:36:35;;;;;;;10.88;6.97;;;19.20;99.90;;;;;;4959896;28;20260;-59
2022/07/19 00:39:00;;;;;;;14.00;7.68;;;19.10;99.90;;;;;;4961858;28;20054;-58
2022/07/19 00:41:26;;;;;;;10.55;7.53;;;19.10;99.90;;;;;;4961719;28;20113;-58
2022/07/19 00:43:52;;;;;;;7.55;6.72;;;19.10;99.90;;;;;;4962240;28;20107;-59
2022/07/19 00:46:21;;;;;;;9.65;6.90;;;19.10;99.90;;;;;;4960246;28;20478;-58
2022/07/19 00:48:50;;;;;;;8.35;6.35;;;19.10;99.90;;;;;;4960719;28;20054;-59
2022/07/19 00:51:18;;;;;;;9.57;6.45;;;19.10;99.90;;;;;;4961444;28;20121;-58
2022/07/19 00:53:44;;;;;;;8.45;6.57;;;19.00;99.90;;;;;;4962414;28;20109;-59
2022/07/19 00:56:12;;;;;;;7.70;6.25;;;19.00;99.90;;;;;;4961735;28;20079;-58
2022/07/19 00:58:39;;;;;;;10.13;6.85;;;18.90;99.90;;;;;;4961771;28;20436;-59
2022/07/19 01:01:06;;;;;;;9.45;6.57;;;18.90;99.90;;;;;;4960907;28;20082;-58
2022/07/19 01:03:37;;;;;;;10.25;6.63;;;18.90;99.90;;;;;;4961095;28;20039;-59
2022/07/19 01:06:03;;;;;;;9.23;7.22;;;18.90;99.90;;;;;;4963507;28;20710;-59
2022/07/19 01:08:29;;;;;;;9.60;7.60;;;18.80;99.90;;;;;;4970654;28;20034;-58
2022/07/19 01:10:55;;;;;;;13.50;7.88;;;18.90;99.90;;;;;;4961359;28;20260;-59
2022/07/19 01:13:21;;;;;;;9.57;7.47;;;18.80;99.90;;;;;;4963231;28;20038;-58
2022/07/19 01:15:46;;;;;;;9.82;6.95;;;18.70;99.90;;;;;;4964621;28;20077;-58
2022/07/19 01:18:12;;;;;;;9.57;7.05;;;18.70;99.90;;;;;;4964390;28;20047;-58
2022/07/19 01:20:38;;;;;;;12.50;7.80;;;18.60;99.90;;;;;;4964758;28;20122;-58
2022/07/19 01:23:04;;;;;;;9.23;6.80;;;18.60;99.90;;;;;;4964014;28;20050;-59
2022/07/19 01:25:35;;;;;;;9.52;7.07;;;18.60;99.90;;;;;;4964960;28;20070;-58
2022/07/19 01:28:02;;;;;;;10.60;8.25;;;18.70;99.90;;;;;;4965280;28;20114;-58
2022/07/19 01:30:28;;;;;;;10.55;7.22;;;18.60;99.90;;;;;;4963693;28;20042;-59
2022/07/19 01:32:56;;;;;;;9.88;7.65;;;18.60;99.90;;;;;;4965279;28;20560;-58
2022/07/19 01:35:22;;;;;;;9.85;8.30;;;18.60;99.90;;;;;;4963711;28;20042;-58
2022/07/19 01:37:48;;;;;;;13.73;8.77;;;18.60;99.90;;;;;;4964809;28;20053;-58
2022/07/19 01:40:16;;;;;;;11.85;8.25;;;18.50;99.90;;;;;;4964665;28;20046;-59
2022/07/19 01:42:42;;;;;;;10.77;8.23;;;18.50;99.90;;;;;;4965171;28;20505;-57
2022/07/19 01:45:09;;;;;;;11.00;8.35;;;18.50;99.90;;;;;;4963982;28;20375;-59
2022/07/19 01:47:36;;;;;;;11.23;8.27;;;18.50;99.90;;;;;;4964164;28;20406;-58
2022/07/19 01:50:05;;;;;;;10.38;8.18;;;18.50;99.90;;;;;;4965108;28;20078;-58
2022/07/19 01:52:31;;;;;;;10.30;7.47;;;18.50;99.90;;;;;;4964032;28;20094;-59
2022/07/19 01:54:57;;;;;;;11.90;7.90;;;18.50;99.90;;;;;;4964767;28;20050;-58
2022/07/19 01:57:23;;;;;;;12.30;8.32;;;18.50;99.90;;;;;;4963684;28;20092;-58
2022/07/19 01:59:48;;;;;;;12.57;8.02;;;18.50;99.90;;;;;;4964244;28;20050;-58
2022/07/19 02:02:14;;;;;;;10.50;7.90;;;18.40;99.90;;;;;;4964393;28;20053;-59
2022/07/19 02:04:39;;;;;;;11.80;7.90;;;18.40;99.90;;;;;;4964457;28;20046;-58
2022/07/19 02:07:05;;;;;;;11.25;8.00;;;18.30;99.90;;;;;;4969724;28;20046;-58
2022/07/19 02:09:31;;;;;;;10.70;7.93;;;18.30;99.90;;;;;;4968699;28;20086;-58
2022/07/19 02:11:56;;;;;;;9.82;7.72;;;18.10;99.90;;;;;;4979389;28;20139;-58
2022/07/19 02:14:22;;;;;;;9.65;7.90;;;18.10;99.90;;;;;;4962852;28;20205;-59
2022/07/19 02:16:48;;;;;;;12.40;8.30;;;18.10;99.90;;;;;;4963642;28;20046;-59
2022/07/19 02:19:14;;;;;;;9.98;8.05;;;18.10;99.90;;;;;;4964681;28;20210;-58
2022/07/19 02:21:39;;;;;;;13.27;8.82;;;18.10;99.90;;;;;;4963999;28;20069;-58
2022/07/19 02:24:07;;;;;;;11.23;8.90;;;18.10;99.90;;;;;;4963813;28;20132;-58
2022/07/19 02:26:34;;;;;;;12.75;9.07;;;18.00;99.90;;;;;;4963226;28;20043;-59
2022/07/19 02:29:01;;;;;;;11.65;8.40;;;18.10;99.90;;;;;;4964197;28;20047;-58
2022/07/19 02:31:27;;;;;;;11.88;7.90;;;18.00;99.90;;;;;;4962918;28;20405;-59
2022/07/19 02:33:52;;;;;;;11.60;8.43;;;18.00;99.90;;;;;;4964031;28;20047;-58
2022/07/19 02:36:18;;;;;;;12.43;9.50;;;18.00;99.90;;;;;;4963249;28;20557;-58
2022/07/19 02:38:44;;;;;;;12.18;8.95;;;17.90;99.90;;;;;;4964537;28;20085;-58
2022/07/19 02:41:10;;;;;;;11.43;8.40;;;18.00;99.90;;;;;;4963540;28;20130;-58
2022/07/19 02:43:36;;;;;;;12.27;8.82;;;18.00;99.90;;;;;;4962988;28;20425;-59
2022/07/19 02:46:02;;;;;;;14.02;9.63;;;17.90;99.90;;;;;;4963226;28;20047;-58
2022/07/19 02:48:27;;;;;;;12.18;9.60;;;17.90;99.90;;;;;;4963135;28;20038;-59
2022/07/19 02:50:53;;;;;;;11.63;9.50;;;17.80;99.90;;;;;;4963934;28;20054;-58
2022/07/19 02:53:19;;;;;;;12.55;9.45;;;17.90;99.90;;;;;;4962810;28;20085;-57
2022/07/19 02:55:44;;;;;;;12.25;9.73;;;17.80;99.90;;;;;;4964032;28;20058;-57
2022/07/19 02:58:10;;;;;;;10.05;8.90;;;17.80;99.90;;;;;;4963524;28;20085;-57
2022/07/19 03:00:36;;;;;;;9.63;8.63;;;17.70;99.90;;;;;;4962289;28;20047;-58
2022/07/19 03:05:47;;;;;;;10.15;8.55;;;17.80;99.90;;;;;;4963491;28;20300;-58
2022/07/19 03:08:13;;;;;;;9.85;8.38;;;17.80;99.90;;;;;;4974351;28;20050;-58
2022/07/19 03:10:38;;;;;;;12.02;8.50;;;17.80;99.90;;;;;;4960946;28;20054;-57
2022/07/19 03:13:04;;;;;;;10.77;8.30;;;17.70;99.90;;;;;;4962099;28;20050;-57
2022/07/19 03:15:30;;;;;;;10.93;8.13;;;17.70;99.90;;;;;;4960518;28;20051;-58
2022/07/19 03:17:56;;;;;;;13.38;9.63;;;17.60;99.90;;;;;;4963151;28;20047;-57
2022/07/19 03:20:22;;;;;;;11.40;8.88;;;17.60;99.90;;;;;;4962265;28;20489;-57
2022/07/19 03:22:47;;;;;;;10.85;8.77;;;17.60;99.90;;;;;;4963180;28;20046;-58
2022/07/19 03:25:13;;;;;;;10.80;9.05;;;17.60;99.90;;;;;;4961994;28;20494;-57
2022/07/19 03:27:39;;;;;;;11.57;9.65;;;17.50;99.90;;;;;;4961600;28;20134;-58
2022/07/19 03:30:05;;;;;;;13.18;10.07;;;17.60;99.90;;;;;;4961496;28;20065;-57
2022/07/19 03:32:31;;;;;;;12.63;8.98;;;17.70;99.90;;;;;;4960934;28;20075;-57
2022/07/19 03:34:57;;;;;;;11.65;8.68;;;17.60;99.90;;;;;;4961805;28;20070;-57
2022/07/19 03:37:22;;;;;;;10.32;8.40;;;17.60;99.90;;;;;;4962223;28;20074;-57
2022/07/19 03:39:48;;;;;;;11.50;9.10;;;17.50;99.90;;;;;;4962269;28;20050;-58
2022/07/19 03:42:14;;;;;;;12.02;8.55;;;17.50;99.90;;;;;;4962874;28;20038;-58
2022/07/19 03:44:39;;;;;;;10.98;8.63;;;17.60;99.90;;;;;;4961608;28;20453;-57
2022/07/19 03:47:05;;;;;;;10.70;8.52;;;17.50;99.90;;;;;;4962219;28;20043;-58
2022/07/19 03:49:30;;;;;;;12.77;9.10;;;17.50;99.90;;;;;;4961996;28;20050;-58
2022/07/19 03:51:56;;;;;;;9.35;8.05;;;17.40;99.90;;;;;;4962333;28;20043;-57
2022/07/19 03:54:22;;;;;;;14.00;8.90;;;17.50;99.90;;;;;;4962260;28;20039;-58
2022/07/19 03:56:48;;;;;;;10.98;8.80;;;17.50;99.90;;;;;;4960939;28;20557;-58
2022/07/19 03:59:13;;;;;;;10.35;8.35;;;17.50;99.90;;;;;;4962015;28;20047;-57
2022/07/19 04:01:40;;;;;;;11.98;8.18;;;17.50;99.90;;;;;;4962385;28;20449;-57
2022/07/19 04:04:06;;;;;;;11.82;9.30;;;17.60;99.90;;;;;;4962347;28;20078;-58
2022/07/19 04:06:32;;;;;;;11.52;9.02;;;17.60;99.90;;;;;;4962836;28;20410;-57
2022/07/19 04:08:58;;;;;;;10.60;9.13;;;17.60;99.90;;;;;;4976392;28;20464;-57
2022/07/19 04:11:24;;;;;;;10.75;8.90;;;17.60;99.90;;;;;;4961963;28;20121;-57
2022/07/19 04:13:49;;;;;;;11.25;9.10;;;17.70;99.90;;;;;;4962325;28;20059;-58
2022/07/19 04:16:15;;;;;;;10.77;9.20;;;17.80;99.90;;;;;;4961098;28;20055;-57
2022/07/19 04:18:41;;;;;;;12.02;8.70;;;17.80;99.90;;;;;;4962613;28;20050;-58
2022/07/19 04:21:07;;;;;;;14.43;9.27;;;17.80;99.90;;;;;;4960533;28;20039;-58
2022/07/19 04:23:32;;;;;;;12.02;8.88;;;17.80;99.90;;;;;;4961924;28;20043;-58
2022/07/19 04:25:58;;;;;;;19.02;9.48;;;17.80;99.90;;;;;;4961379;28;20078;-57
2022/07/19 04:28:24;;;;;;;11.10;8.88;;;17.90;99.90;;;;;;4961741;28;20683;-58
2022/07/19 04:30:50;;;;;;;13.32;9.18;;;18.00;99.90;;;;;;4960393;28;20511;-57
2022/07/19 04:33:18;;;;;;;11.98;8.05;;;18.00;99.90;;;;;;4961868;28;20050;-58
2022/07/19 04:35:45;;;;;;;11.60;8.73;;;18.00;99.90;;;;;;4962272;28;20049;-57
2022/07/19 04:38:11;;;;;;;12.35;8.10;;;18.00;99.90;;;;;;4960432;28;20304;-56
2022/07/19 04:40:37;;;;;;;11.68;8.80;;;18.00;99.90;;;;;;4962023;28;20047;-57
2022/07/19 04:43:03;;;;;;;11.95;9.10;;;18.00;99.90;;;;;;4961933;28;20105;-57
2022/07/19 04:45:29;;;;;;;12.82;8.57;;;18.20;99.90;;;;;;4960423;28;20442;-58
2022/07/19 04:47:55;;;;;;;11.75;8.68;;;18.20;99.90;;;;;;4965418;28;20054;-57
2022/07/19 04:50:21;;;;;;;12.68;9.27;;;18.30;99.90;;;;;;4965400;28;20050;-57
2022/07/19 04:52:46;;;;;;;13.52;8.18;;;18.50;99.90;;;;;;4964407;28;20121;-57
2022/07/19 04:55:12;;;;;;;12.10;8.30;;;18.90;99.90;;;;;;4965380;28;20074;-57
2022/07/19 04:57:38;;;;;;;12.52;8.23;;;19.20;99.90;;;;;;4965659;28;20527;-57
2022/07/19 05:00:08;;;;;;;12.95;8.73;;;19.50;99.90;;;;;;4963357;28;20050;-57
2022/07/19 05:02:34;;;;;;;12.98;8.23;;;19.60;99.90;;;;;;4963656;28;20105;-58
2022/07/19 05:05:00;;;;;;;12.70;8.27;;;19.60;99.90;;;;;;4965628;28;21093;-57
2022/07/19 05:07:26;;;;;;;10.18;7.97;;;19.70;99.90;;;;;;4973804;28;20157;-58
2022/07/19 05:09:51;;;;;;;13.63;8.25;;;19.90;99.90;;;;;;4967730;28;20055;-57
2022/07/19 05:12:17;;;;;;;13.68;8.43;;;20.00;99.90;;;;;;4964597;28;20126;-58
2022/07/19 05:14:43;;;;;;;12.13;8.82;;;20.00;99.90;;;;;;4963796;28;20146;-57
2022/07/19 05:17:08;;;;;;;10.80;8.35;;;20.10;99.90;;;;;;4965313;28;20109;-58
2022/07/19 05:19:34;;;;;;;12.40;8.45;;;20.30;99.90;;;;;;4965177;28;20051;-57
2022/07/19 05:22:00;;;;;;;10.60;8.32;;;20.80;99.90;;;;;;4964458;28;20042;-58
2022/07/19 05:24:25;;;;;;;14.00;8.27;;;21.30;99.90;;;;;;4964718;28;20046;-58
2022/07/19 05:26:51;;;;;;;13.18;8.55;;;21.50;99.90;;;;;;4965087;28;20051;-57
2022/07/19 05:29:16;;;;;;;12.43;8.13;;;21.90;99.90;;;;;;4962967;28;20072;-54
2022/07/19 05:31:42;;;;;;;10.75;8.05;;;22.10;99.90;;;;;;4965229;28;20053;-56
2022/07/19 05:34:08;;;;;;;14.73;8.45;;;22.50;99.90;;;;;;4964969;28;20050;-58
2022/07/19 05:36:34;;;;;;;12.05;7.43;;;22.60;99.90;;;;;;4965012;28;20121;-57
2022/07/19 05:39:00;;;;;;;10.55;7.32;;;22.50;99.90;;;;;;4964681;28;20465;-58
2022/07/19 05:41:25;;;;;;;12.07;7.70;;;22.90;99.90;;;;;;4963850;28;20035;-57
2022/07/19 05:43:52;;;;;;;10.68;7.18;;;23.00;99.90;;;;;;4964402;28;20050;-57
2022/07/19 05:46:18;;;;;;;12.45;8.35;;;23.30;99.90;;;;;;4964221;28;20043;-57
2022/07/19 05:48:44;;;;;;;12.35;7.55;;;23.20;99.90;;;;;;4965204;28;20126;-57
2022/07/19 05:51:09;;;;;;;13.48;7.88;;;23.40;99.90;;;;;;4962541;28;20057;-57
2022/07/19 05:53:36;;;;;;;12.75;7.68;;;23.40;99.90;;;;;;4964621;28;20550;-58
2022/07/19 05:56:03;;;;;;;11.60;7.70;;;23.40;99.90;;;;;;4964808;28;20035;-58
2022/07/19 05:58:29;;;;;;;11.48;7.03;;;23.60;99.90;;;;;;4962973;28;20047;-58
2022/07/19 06:03:39;;;;;;;9.25;7.07;;;23.30;99.90;;;;;;4964452;28;20543;-57
2022/07/19 06:06:05;;;;;;;11.90;7.30;;;23.00;99.90;;;;;;4966123;28;20042;-57
2022/07/19 06:08:30;;;;;;;9.15;7.15;;;22.80;99.90;;;;;;4973218;28;20038;-58
2022/07/19 06:10:56;;;;;;;12.43;6.95;;;23.00;99.90;;;;;;4962885;28;20042;-57
2022/07/19 06:13:22;;;;;;;10.80;7.38;;;23.50;99.90;;;;;;4964164;28;20051;-57
2022/07/19 06:15:49;;;;;;;8.65;6.57;;;23.70;99.90;;;;;;4963250;28;20082;-57
2022/07/19 06:18:15;;;;;;;10.30;6.80;;;24.10;99.90;;;;;;4964220;28;20473;-58
2022/07/19 06:20:41;;;;;;;10.13;6.10;;;24.60;99.90;;;;;;4964319;28;20047;-58
2022/07/19 06:23:07;;;;;;;12.63;6.55;;;24.50;99.90;;;;;;4964163;28;20618;-58
2022/07/19 06:25:32;;;;;;;8.82;5.60;;;24.90;99.90;;;;;;4963343;28;20046;-57
2022/07/19 06:27:58;;;;;;;14.00;6.13;;;25.30;99.90;;;;;;4964256;28;20418;-57
2022/07/19 06:30:24;;;;;;;15.80;5.97;;;25.40;99.90;;;;;;4962776;28;20050;-57
2022/07/19 06:32:49;;;;;;;9.38;5.80;;;25.60;99.90;;;;;;4964223;28;20457;-58
2022/07/19 06:35:15;;;;;;;9.35;5.82;;;25.90;99.90;;;;;;4963221;28;20058;-57
2022/07/19 06:37:41;;;;;;;9.98;5.80;;;26.00;99.90;;;;;;4964118;28;20067;-57
2022/07/19 06:40:07;;;;;;;22.13;6.80;;;26.00;99.90;;;;;;4962571;28;20098;-58
2022/07/19 06:42:33;;;;;;;9.02;5.78;;;26.00;99.90;;;;;;4963344;28;20093;-57
2022/07/19 06:45:01;;;;;;;6.50;4.72;;;25.20;99.90;;;;;;4962823;28;20046;-58
2022/07/19 06:47:32;;;;;;;9.13;5.28;;;25.10;99.90;;;;;;4963132;28;20458;-57
2022/07/19 06:49:58;;;;;;;8.43;4.80;;;25.30;99.90;;;;;;4963595;28;20038;-58
2022/07/19 06:52:24;;;;;;;12.18;5.28;;;25.20;99.90;;;;;;4962691;28;20361;-58
2022/07/19 06:54:49;;;;;;;8.55;5.30;;;25.10;99.90;;;;;;4962317;28;20053;-57
2022/07/19 06:57:15;;;;;;;10.30;5.55;;;25.00;99.90;;;;;;4963491;28;20049;-57
2022/07/19 06:59:41;;;;;;;8.02;4.80;;;25.10;99.90;;;;;;4963177;28;20043;-57
2022/07/19 07:02:06;;;;;;;7.57;4.85;;;25.00;99.90;;;;;;4962306;28;20126;-57
2022/07/19 07:04:32;;;;;;;10.60;4.55;;;25.20;99.90;;;;;;4963698;28;20130;-57
2022/07/19 07:06:58;;;;;;;7.03;4.72;;;25.20;99.90;;;;;;4967849;28;20051;-57
2022/07/19 07:09:23;;;;;;;8.15;4.95;;;25.30;99.90;;;;;;4968111;28;20131;-57
2022/07/19 07:11:49;;;;;;;8.00;5.03;;;25.60;99.90;;;;;;4962426;28;20051;-58
2022/07/19 07:14:15;;;;;;;7.72;4.63;;;26.00;99.90;;;;;;4962605;28;20405;-57
2022/07/19 07:16:41;;;;;;;8.32;4.63;;;25.60;99.90;;;;;;4963414;28;20155;-57
2022/07/19 07:19:06;;;;;;;8.48;4.90;;;26.20;99.90;;;;;;4963190;28;20042;-57
2022/07/19 07:21:34;;;;;;;7.75;4.90;;;26.40;99.90;;;;;;4962254;28;20057;-57
2022/07/19 07:24:01;;;;;;;7.32;4.47;;;26.20;99.90;;;;;;4961706;28;20437;-57
2022/07/19 07:26:27;;;;;;;6.55;4.38;;;26.50;99.90;;;;;;4962719;28;20069;-57
2022/07/19 07:28:53;;;;;;;9.90;4.68;;;27.20;99.90;;;;;;4962339;28;20549;-57
2022/07/19 07:31:19;;;;;;;7.70;4.43;;;27.40;99.90;;;;;;4961580;28;20130;-57
2022/07/19 07:33:44;;;;;;;8.27;4.53;;;27.70;99.90;;;;;;4962125;28;20420;-57
2022/07/19 07:36:10;;;;;;;9.02;4.65;;;28.20;99.90;;;;;;4962457;28;20054;-56
2022/07/19 07:38:36;;;;;;;8.20;4.32;;;27.80;99.90;;;;;;4962563;28;20070;-57
2022/07/19 07:41:02;;;;;;;8.13;4.00;;;27.90;99.90;;;;;;4962289;28;20067;-57
2022/07/19 07:43:28;;;;;;;6.53;4.00;;;27.40;99.90;;;;;;4960268;28;20039;-57
2022/07/19 07:45:54;;;;;;;5.53;3.92;;;27.90;99.90;;;;;;4961595;28;20035;-57
2022/07/19 07:48:19;;;;;;;8.50;4.22;;;27.80;99.90;;;;;;4961994;28;20059;-56
2022/07/19 07:50:45;;;;;;;7.97;4.07;;;27.90;99.90;;;;;;4962291;28;20057;-56
2022/07/19 07:53:11;;;;;;;5.30;3.70;;;27.80;99.90;;;;;;4961796;28;20051;-57
2022/07/19 07:55:39;;;;;;;8.30;3.95;;;27.80;99.90;;;;;;4962058;28;20127;-57
2022/07/19 07:58:07;;;;;;;6.97;4.00;;;27.90;99.90;;;;;;4961724;28;20113;-57
2022/07/19 08:00:33;;;;;;;7.00;3.92;;;28.00;99.90;;;;;;4961348;28;20414;-57
2022/07/19 08:02:59;;;;;;;6.68;4.25;;;28.10;99.90;;;;;;4962234;28;20062;-56
2022/07/19 08:05:25;;;;;;;5.60;3.88;;;27.70;99.90;;;;;;4961693;28;20054;-57
2022/07/19 08:07:51;;;;;;;5.65;3.65;;;28.20;99.90;;;;;;4972529;28;20053;-57
2022/07/19 08:10:18;;;;;;;6.55;4.05;;;28.30;99.90;;;;;;4961977;28;20394;-57
2022/07/19 08:12:43;;;;;;;6.05;4.30;;;28.30;99.90;;;;;;4962422;28;20053;-58
2022/07/19 08:15:09;;;;;;;10.23;4.43;;;28.10;99.90;;;;;;4961174;28;20043;-59
2022/07/19 08:17:35;;;;;;;6.68;4.60;;;28.70;99.90;;;;;;4961383;28;20141;-59
2022/07/19 08:20:01;;;;;;;5.45;3.85;;;28.80;99.90;;;;;;4960914;28;20105;-58
2022/07/19 08:22:28;;;;;;;6.43;3.80;;;28.50;99.90;;;;;;4961464;28;20046;-58
2022/07/19 08:24:54;;;;;;;8.80;3.88;;;28.70;99.90;;;;;;4962498;28;20086;-59
2022/07/19 08:27:20;;;;;;;7.80;4.18;;;28.90;99.90;;;;;;4961181;28;20074;-59
2022/07/19 08:29:45;;;;;;;7.22;4.22;;;29.10;99.90;;;;;;4961571;28;20465;-59
2022/07/19 08:32:11;;;;;;;7.15;3.80;;;29.20;99.90;;;;;;4959694;28;20414;-58
2022/07/19 08:34:36;;;;;;;8.35;3.65;;;29.00;99.90;;;;;;4978342;28;20050;-58
2022/07/19 08:37:03;;;;;;;5.57;3.38;;;29.10;99.90;;;;;;4979850;28;20046;-59
2022/07/19 08:39:29;;;;;;;5.85;3.50;;;29.40;99.90;;;;;;4980371;28;20070;-58
2022/07/19 08:41:55;;;;;;;9.55;4.20;;;29.50;99.90;;;;;;4980609;28;20049;-58
2022/07/19 08:44:22;;;;;;;5.90;3.75;;;29.50;99.90;;;;;;4979681;28;20445;-58
2022/07/19 08:46:48;;;;;;;6.00;3.60;;;29.80;99.90;;;;;;4980604;28;20389;-58
2022/07/19 08:49:15;;;;;;;5.18;3.45;;;29.90;99.90;;;;;;4981131;28;20100;-58
2022/07/19 08:51:46;;;;;;;8.35;4.07;;;30.10;99.90;;;;;;4981463;28;20035;-58
2022/07/19 08:54:12;;;;;;;4.97;3.63;;;30.20;99.90;;;;;;4979252;28;20112;-58
2022/07/19 08:59:23;;;;;;;;;;;30.10;99.90;;;;;;4980426;28;20702;-59
2022/07/19 09:01:48;;;;;;;6.70;3.42;;;29.80;99.90;;;;;;4980457;28;19924;-58
2022/07/19 09:04:20;;;;;;;5.38;3.50;;;30.40;99.90;;;;;;4980953;28;20493;-58
2022/07/19 09:06:48;;;;;;;7.40;3.90;;;30.50;99.90;;;;;;4975053;28;20043;-60
2022/07/19 09:09:16;;;;;;;7.32;3.65;;;30.40;99.90;;;;;;4968750;28;20127;-59
2022/07/19 09:11:50;;;;;;;5.35;3.72;;;30.30;99.90;;;;;;4961380;28;20050;-58
2022/07/19 09:14:24;;;;;;;8.45;3.40;;;30.60;99.90;;;;;;4960234;28;20086;-59
2022/07/19 09:16:55;;;;;;;5.80;3.42;;;31.00;99.90;;;;;;4960050;28;20059;-59
2022/07/19 09:19:21;;;;;;;5.43;3.17;;;30.70;99.90;;;;;;4961053;28;20268;-59
2022/07/19 09:22:02;;;;;;;4.95;3.22;;;31.20;99.90;;;;;;4961207;28;20053;-59
2022/07/19 09:24:31;;;;;;;7.32;3.50;;;30.80;99.90;;;;;;4960148;28;20518;-59
2022/07/19 09:26:59;;;;;;;5.80;3.50;;;31.10;99.90;;;;;;4963682;28;20050;-57
2022/07/19 09:29:26;;;;;;;5.47;3.20;;;31.30;99.90;;;;;;4979546;28;20089;-58
2022/07/19 09:32:19;;;;;;;5.07;3.42;;;31.00;99.90;;;;;;4980677;28;20049;-58
2022/07/19 09:34:52;;;;;;;6.03;3.13;;;31.10;99.90;;;;;;4983439;28;20066;-59
2022/07/19 09:37:21;;;;;;;4.17;2.80;;;31.10;99.90;;;;;;4984009;28;20050;-59
2022/07/19 09:39:49;;;;;;;5.18;2.95;;;31.40;99.90;;;;;;4984053;28;20307;-59
2022/07/19 09:42:21;;;;;;;6.25;2.83;;;31.70;99.90;;;;;;4984430;28;20046;-58
2022/07/19 09:44:56;;;;;;;3.15;2.63;;;31.40;99.90;;;;;;4983611;28;20054;-59
2022/07/19 09:47:31;;;;;;;4.20;2.53;;;31.40;99.90;;;;;;4983979;28;20604;-59
2022/07/19 09:49:56;;;;;;;6.90;2.58;;;31.60;99.90;;;;;;4984152;28;20092;-59
2022/07/19 09:52:23;;;;;;;3.65;2.60;;;31.70;99.90;;;;;;4984263;28;20070;-58
2022/07/19 09:54:51;;;;;;;5.32;3.00;;;31.50;99.90;;;;;;4983674;28;20053;-59
2022/07/19 09:57:22;;;;;;;5.55;2.53;;;31.80;99.90;;;;;;4983533;28;20034;-59
2022/07/19 09:59:51;;;;;;;5.18;2.80;;;31.70;99.90;;;;;;4983433;28;20491;-59
2022/07/19 10:02:21;;;;;;;4.68;2.67;;;31.80;99.90;;;;;;4983146;28;20138;-59
2022/07/19 10:04:46;;;;;;;9.40;2.70;;;32.40;99.90;;;;;;4984286;28;20039;-59
2022/07/19 10:07:13;;;;;;;6.53;2.70;;;32.50;99.90;;;;;;4978065;28;20453;-58
2022/07/19 10:09:39;;;;;;;5.30;2.80;;;32.10;99.60;;;;;;4967749;28;20061;-58
2022/07/19 10:12:05;;;;;;;4.75;2.33;;;32.20;99.90;;;;;;4964193;28;20523;-58
2022/07/19 10:14:32;;;;;;;5.15;2.60;;;32.40;99.90;;;;;;4963220;28;20047;-59
2022/07/19 10:17:08;;;;;;;5.68;2.63;;;32.50;99.40;;;;;;4964759;28;20055;-59
2022/07/19 10:19:46;;;;;;;4.07;2.90;;;32.50;99.70;;;;;;4963761;28;20482;-59
2022/07/19 10:22:14;;;;;;;5.63;2.85;;;32.80;99.90;;;;;;4964396;28;20047;-58
2022/07/19 10:25:11;;;;;;;3.55;2.35;;;32.50;99.00;;;;;;4963061;28;20082;-58
2022/07/19 10:27:57;;;;;;;5.03;2.90;;;32.50;98.80;;;;;;4962517;28;20053;-59
2022/07/19 10:30:26;;;;;;;5.10;2.60;;;32.50;99.10;;;;;;4962892;28;20078;-58
2022/07/19 10:32:55;;;;;;;5.38;2.30;;;32.60;98.40;;;;;;4964395;28;20458;-59
2022/07/19 10:35:28;;;;;;;7.97;2.58;;;32.70;98.10;;;;;;4963788;28;20133;-59
2022/07/19 10:38:14;;;;;;;;;;;32.70;98.50;;;;;;4963839;28;20089;-59
2022/07/19 10:40:48;;;;;;;6.15;2.50;;;32.60;98.50;;;;;;4963366;28;19922;-58
2022/07/19 10:43:20;;;;;;;4.80;2.63;;;33.00;98.70;;;;;;4962759;28;20134;-58
2022/07/19 10:46:04;;;;;;;7.07;2.50;;;32.70;98.40;;;;;;4963891;28;20057;-59
2022/07/19 10:48:45;;;;;;;5.22;2.67;;;33.00;98.30;;;;;;4963723;28;20401;-59
2022/07/19 10:51:26;;;;;;;5.15;2.45;;;33.00;98.10;;;;;;4963753;28;20043;-59
2022/07/19 10:54:02;;;;;;;5.18;2.72;;;33.20;98.30;;;;;;4964242;28;20067;-59
2022/07/19 10:56:34;;;;;;;5.75;2.53;;;33.00;98.20;;;;;;4963263;28;20051;-59
2022/07/19 10:59:02;;;;;;;4.93;2.80;;;33.40;98.20;;;;;;4963118;28;20101;-59
2022/07/19 11:01:30;;;;;;;3.90;2.35;;;33.40;98.00;;;;;;4962695;28;20058;-59
2022/07/19 11:04:26;;;;;;;4.00;2.30;;;33.40;96.90;;;;;;4963433;28;20050;-59
2022/07/19 11:07:09;;;;;;;5.35;2.10;;;33.50;97.50;;;;;;4967116;28;20054;-59
2022/07/19 11:09:47;;;;;;;4.85;2.38;;;33.20;97.60;;;;;;4967446;28;20050;-58
2022/07/19 11:12:29;;;;;;;3.58;2.30;;;33.20;97.40;;;;;;4962996;28;20086;-58
2022/07/19 11:14:57;;;;;;;3.72;2.00;;;33.60;97.40;;;;;;4962687;28;20058;-59
2022/07/19 11:17:22;;;;;;;4.70;2.38;;;33.80;96.90;;;;;;4963004;28;20704;-59
2022/07/19 11:20:08;;;;;;;3.65;2.22;;;33.60;96.40;;;;;;4961806;28;20057;-59
2022/07/19 11:22:36;;;;;;;6.18;2.30;;;33.80;96.30;;;;;;4963094;28;20047;-59
2022/07/19 11:25:04;;;;;;;3.45;2.30;;;33.90;96.50;;;;;;4962979;28;20062;-59
2022/07/19 11:27:31;;;;;;;6.63;2.42;;;34.00;96.50;;;;;;4962544;28;20046;-58
2022/07/19 11:29:59;;;;;;;4.38;2.20;;;34.40;96.90;;;;;;4962512;28;20046;-59
2022/07/19 11:32:25;;;;;;;4.43;2.30;;;34.70;96.70;;;;;;4962825;28;20042;-56
2022/07/19 11:35:00;;;;;;;5.85;2.03;;;34.50;96.10;;;;;;4962456;28;20736;-56
2022/07/19 11:37:34;;;;;;;2.85;1.60;;;34.60;95.70;;;;;;4962254;28;20043;-57
2022/07/19 11:40:00;;;;;;;4.53;2.20;;;34.70;95.40;;;;;;4962722;28;20050;-56
2022/07/19 11:42:43;;;;;;;4.57;2.10;;;34.60;95.00;;;;;;4960429;28;20061;-58
2022/07/19 11:45:10;;;;;;;7.88;2.35;;;34.50;94.70;;;;;;4962892;28;20117;-58
2022/07/19 11:47:36;;;;;;;5.30;2.10;;;34.30;94.50;;;;;;4962517;28;20046;-57
2022/07/19 11:50:10;;;;;;;3.65;1.67;;;34.30;95.00;;;;;;4962038;28;20093;-58
2022/07/19 11:52:53;;;;;;;3.30;1.80;;;34.50;94.60;;;;;;4962120;28;20565;-57
2022/07/19 11:55:28;;;;;;;5.03;2.10;;;34.60;94.20;;;;;;4961667;28;20069;-58
2022/07/19 11:57:54;;;;;;;4.18;2.15;;;34.40;94.10;;;;;;4961486;28;20046;-58
2022/07/19 12:00:21;;;;;;;3.20;2.00;;;34.60;94.20;;;;;;4967104;28;20050;-57
2022/07/19 12:03:06;;;;;;;6.25;2.20;;;34.90;94.20;;;;;;4980475;28;20057;-58
2022/07/19 12:05:33;;;;;;;5.32;2.00;;;35.20;94.70;;;;;;4980218;28;20070;-58
2022/07/19 12:08:07;;;;;;;2.20;1.55;;;35.10;94.00;;;;;;4970684;28;20089;-58
2022/07/19 12:10:45;;;;;;;3.65;1.77;;;35.20;93.80;;;;;;4980634;28;20085;-58
2022/07/19 12:13:26;;;;;;;3.58;1.80;;;35.10;93.60;;;;;;4980924;28;20140;-57
2022/07/19 12:15:54;;;;;;;4.32;2.30;;;35.10;94.00;;;;;;4981139;28;20050;-58
2022/07/19 12:19:01;;;;;;;3.45;1.90;;;34.90;93.60;;;;;;4981002;28;20042;-58
2022/07/19 12:21:34;;;;;;;3.85;1.80;;;35.10;94.00;;;;;;4958602;28;20162;-58
2022/07/19 12:24:18;;;;;;;;;;;35.60;93.80;;;;;;4959640;28;20576;-58
2022/07/19 12:27:08;;;;;;;3.05;1.60;;;35.20;92.80;;;;;;4973141;28;19925;-59
2022/07/19 12:29:43;;;;;;;2.88;1.70;;;35.20;92.60;;;;;;4977518;28;20156;-58
2022/07/19 12:32:11;;;;;;;4.60;1.77;;;35.20;92.30;;;;;;4980910;28;20169;-58
2022/07/19 12:34:46;;;;;;;4.22;2.15;;;35.10;92.90;;;;;;4981643;28;20066;-58
2022/07/19 12:37:41;;;;;;;4.55;1.88;;;35.20;92.70;;;;;;4981480;28;20050;-57
2022/07/19 12:40:12;;;;;;;3.47;1.75;;;35.40;92.70;;;;;;4976350;28;20051;-58
2022/07/19 12:42:50;;;;;;;3.47;1.88;;;35.30;92.40;;;;;;4980577;28;20119;-58
2022/07/19 12:45:20;;;;;;;4.65;1.75;;;35.10;91.90;;;;;;4981062;28;20050;-60
2022/07/19 12:47:48;;;;;;;2.47;1.58;;;35.30;92.20;;;;;;4981241;28;20046;-58
2022/07/19 12:50:38;;;;;;;5.20;1.77;;;35.10;91.80;;;;;;4981499;28;20129;-58
2022/07/19 12:53:06;;;;;;;3.92;2.00;;;35.30;91.80;;;;;;4981512;28;20084;-58
2022/07/19 12:55:33;;;;;;;6.10;1.92;;;35.50;92.30;;;;;;4980753;28;20123;-58